Bering Gas — OWYQ2 — position and weather

sailwx.info

Track history (hours):
 
Tides and Currents Weather Stations Pressure Air Temp Water Temp Dewpoint Dewpoint Depression Visibility Wind Speed Wind Dir Waves Ship Positions

Bering Gas

Last reported at 2017-Sep-19 22:10 UTC. Time now 2017-Sep-22 01:19 UTC.
Position N 29°28' W 094°51'.

Length 160 m; draft 8.6 m.

Type: Tanker. MMSI: 219672000.

Date/timePositionNaut miles runAvg speedWind from/ knotsBaromVisibWave heightAir tempDewpointWater temp
2017-Sep-19 22:10N 29°28' W 094°51'211.8
2017-Sep-19 22:00N 29°30' W 094°52'611.1
2017-Sep-19 21:31N 29°34' W 094°55'611.2
2017-Sep-19 21:01N 29°39' W 094°58'4 9.0
2017-Sep-19 20:30N 29°43' W 095°01'4 7.8
2017-Sep-19 20:00N 29°46' W 095°04'3 5.9
2017-Sep-19 19:29N 29°44' W 095°08'0 0.0
2017-Sep-19 03:18N 29°44' W 095°08'0 0.0
2017-Sep-19 03:00N 29°44' W 095°08'0 0.0
2017-Sep-19 02:12N 29°44' W 095°08'0 0.0
2017-Sep-18 00:29N 29°44' W 095°08'1 2.1
2017-Sep-18 00:00N 29°44' W 095°06'3 5.3
2017-Sep-17 23:30N 29°44' W 095°03'4 7.8
2017-Sep-17 23:00N 29°42' W 094°60'510.4
2017-Sep-17 22:30N 29°37' W 094°57'510.0
2017-Sep-17 22:00N 29°33' W 094°54'611.4
2017-Sep-17 21:30N 29°28' W 094°51'611.6
2017-Sep-17 21:00N 29°23' W 094°48'15 0.9
2017-Sep-17 04:33N 29°18' W 094°32'0 0.0
2017-Sep-17 04:15N 29°18' W 094°32'0 0.0
2017-Sep-17 03:57N 29°18' W 094°32'0 0.0
2017-Sep-17 03:09N 29°18' W 094°32'0 0.0
2017-Sep-17 02:51N 29°18' W 094°32'0 0.0
2017-Sep-17 02:21N 29°18' W 094°32'0 0.0
2017-Sep-17 02:00N 29°18' W 094°32'0 0.0
2017-Sep-17 01:27N 29°18' W 094°32'0 0.0
2017-Sep-16 09:24N 29°18' W 094°32'0 0.0
2017-Sep-16 06:39N 29°18' W 094°32'0 0.1
2017-Sep-16 06:30N 29°18' W 094°32'0 0.0
2017-Sep-16 06:00N 29°18' W 094°32'0 0.0
2017-Sep-16 05:30N 29°18' W 094°32'0 0.0
2017-Sep-16 04:57N 29°18' W 094°32'0 0.0
2017-Sep-16 04:30N 29°18' W 094°32'0 0.0
2017-Sep-16 03:51N 29°18' W 094°32'20 1.2
2017-Sep-15 11:05N 29°29' W 094°52'111.7
2017-Sep-15 10:59N 29°30' W 094°52'611.8
2017-Sep-15 10:30N 29°35' W 094°56'612.0
2017-Sep-15 10:00N 29°40' W 094°59'4 8.4
2017-Sep-15 09:31N 29°44' W 095°01'4 7.6
2017-Sep-15 08:59N 29°45' W 095°06'3 6.6
2017-Sep-15 08:31N 29°44' W 095°09'3 5.6
2017-Sep-15 07:58N 29°44' W 095°13'1 0.0
2017-Sep-13 22:56N 29°43' W 095°14'2 4.3
2017-Sep-13 22:30N 29°44' W 095°12'3 5.5
2017-Sep-13 22:00N 29°44' W 095°09'3 6.1
2017-Sep-13 21:31N 29°45' W 095°06'3 6.9
2017-Sep-13 21:01N 29°44' W 095°02'4 7.7
2017-Sep-13 20:31N 29°41' W 094°59'510.5
2017-Sep-13 20:00N 29°36' W 094°57'611.8
2017-Sep-13 19:30N 29°31' W 094°53'611.8
2017-Sep-13 18:58N 29°26' W 094°50'  
Track history (hours):
 
Tides and Currents Weather Stations Pressure Air Temp Water Temp Dewpoint Dewpoint Depression Visibility Wind Speed Wind Dir Waves Ship Positions

Bering Gas

Last reported at 2017-Sep-19 22:10 UTC. Time now 2017-Sep-22 01:19 UTC.
Position N 29°28' W 094°51'.

Length 160 m; draft 8.6 m.

Type: Tanker. MMSI: 219672000.

Date/timePositionNaut miles runAvg speedWind from/ knotsBaromVisibWave heightAir tempDewpointWater temp
2017-Sep-19 22:10N 29°28' W 094°51'211.8
2017-Sep-19 22:00N 29°30' W 094°52'611.1
2017-Sep-19 21:31N 29°34' W 094°55'611.2
2017-Sep-19 21:01N 29°39' W 094°58'4 9.0
2017-Sep-19 20:30N 29°43' W 095°01'4 7.8
2017-Sep-19 20:00N 29°46' W 095°04'3 5.9
2017-Sep-19 19:29N 29°44' W 095°08'0 0.0
2017-Sep-19 03:18N 29°44' W 095°08'0 0.0
2017-Sep-19 03:00N 29°44' W 095°08'0 0.0
2017-Sep-19 02:12N 29°44' W 095°08'0 0.0
2017-Sep-18 00:29N 29°44' W 095°08'1 2.1
2017-Sep-18 00:00N 29°44' W 095°06'3 5.3
2017-Sep-17 23:30N 29°44' W 095°03'4 7.8
2017-Sep-17 23:00N 29°42' W 094°60'510.4
2017-Sep-17 22:30N 29°37' W 094°57'510.0
2017-Sep-17 22:00N 29°33' W 094°54'611.4
2017-Sep-17 21:30N 29°28' W 094°51'611.6
2017-Sep-17 21:00N 29°23' W 094°48'15 0.9
2017-Sep-17 04:33N 29°18' W 094°32'0 0.0
2017-Sep-17 04:15N 29°18' W 094°32'0 0.0
2017-Sep-17 03:57N 29°18' W 094°32'0 0.0
2017-Sep-17 03:09N 29°18' W 094°32'0 0.0
2017-Sep-17 02:51N 29°18' W 094°32'0 0.0
2017-Sep-17 02:21N 29°18' W 094°32'0 0.0
2017-Sep-17 02:00N 29°18' W 094°32'0 0.0
2017-Sep-17 01:27N 29°18' W 094°32'0 0.0
2017-Sep-16 09:24N 29°18' W 094°32'0 0.0
2017-Sep-16 06:39N 29°18' W 094°32'0 0.1
2017-Sep-16 06:30N 29°18' W 094°32'0 0.0
2017-Sep-16 06:00N 29°18' W 094°32'0 0.0
2017-Sep-16 05:30N 29°18' W 094°32'0 0.0
2017-Sep-16 04:57N 29°18' W 094°32'0 0.0
2017-Sep-16 04:30N 29°18' W 094°32'0 0.0
2017-Sep-16 03:51N 29°18' W 094°32'20 1.2
2017-Sep-15 11:05N 29°29' W 094°52'111.7
2017-Sep-15 10:59N 29°30' W 094°52'611.8
2017-Sep-15 10:30N 29°35' W 094°56'612.0
2017-Sep-15 10:00N 29°40' W 094°59'4 8.4
2017-Sep-15 09:31N 29°44' W 095°01'4 7.6
2017-Sep-15 08:59N 29°45' W 095°06'3 6.6
2017-Sep-15 08:31N 29°44' W 095°09'3 5.6
2017-Sep-15 07:58N 29°44' W 095°13'1 0.0
2017-Sep-13 22:56N 29°43' W 095°14'2 4.3
2017-Sep-13 22:30N 29°44' W 095°12'3 5.5
2017-Sep-13 22:00N 29°44' W 095°09'3 6.1
2017-Sep-13 21:31N 29°45' W 095°06'3 6.9
2017-Sep-13 21:01N 29°44' W 095°02'4 7.7
2017-Sep-13 20:31N 29°41' W 094°59'510.5
2017-Sep-13 20:00N 29°36' W 094°57'611.8
2017-Sep-13 19:30N 29°31' W 094°53'611.8
2017-Sep-13 18:58N 29°26' W 094°50'  

Dump ship's entire track history